createdAt,value
2017-12-16T00:02:19.188Z,10.30
2017-12-16T00:04:48.226Z,10.30
2017-12-16T00:07:16.966Z,10.10
2017-12-16T00:09:45.858Z,10.10
2017-12-16T00:12:14.749Z,10.10
2017-12-16T00:14:43.436Z,10.20
2017-12-16T00:17:12.127Z,10.10
2017-12-16T00:19:40.805Z,10.20
2017-12-16T00:22:09.696Z,10.10
2017-12-16T00:24:39.405Z,10.10
2017-12-16T00:27:08.300Z,10.00
2017-12-16T00:29:36.993Z,10.00
2017-12-16T00:32:05.875Z,10.00
2017-12-16T00:34:34.562Z,9.90
2017-12-16T00:37:03.352Z,9.90
2017-12-16T00:39:32.249Z,9.90
2017-12-16T00:42:01.131Z,10.00
2017-12-16T00:44:29.816Z,10.00
2017-12-16T00:46:58.614Z,9.90
2017-12-16T00:49:27.497Z,10.00
2017-12-16T00:51:56.183Z,9.90
2017-12-16T00:54:25.075Z,9.80
2017-12-16T00:56:53.767Z,9.80
2017-12-16T00:59:22.449Z,9.80
2017-12-16T01:01:51.345Z,9.90
2017-12-16T01:04:20.229Z,9.90
2017-12-16T01:06:49.120Z,9.90
2017-12-16T01:09:17.762Z,9.90
2017-12-16T01:11:48.235Z,9.80
2017-12-16T01:14:17.126Z,9.90
2017-12-16T01:16:45.912Z,9.80
2017-12-16T01:19:15.274Z,9.80
2017-12-16T01:21:44.922Z,9.70
2017-12-16T01:24:13.816Z,9.70
2017-12-16T01:26:43.524Z,9.60
2017-12-16T01:29:12.334Z,9.60
2017-12-16T01:31:41.203Z,9.60
2017-12-16T01:34:21.515Z,9.60
2017-12-16T01:37:01.821Z,9.60
2017-12-16T01:39:30.508Z,9.60
2017-12-16T01:41:59.400Z,9.70
2017-12-16T01:44:28.292Z,9.70
2017-12-16T01:46:57.180Z,9.60
2017-12-16T01:49:26.181Z,9.70
2017-12-16T01:51:55.064Z,9.60
2017-12-16T01:54:23.853Z,9.60
2017-12-16T01:56:52.949Z,9.60
2017-12-16T01:59:21.776Z,9.60
2017-12-16T02:01:50.539Z,9.50
2017-12-16T02:04:19.404Z,9.40
2017-12-16T02:06:48.940Z,9.40
2017-12-16T02:09:18.632Z,9.50
2017-12-16T02:11:47.422Z,9.50
2017-12-16T02:14:16.249Z,9.50
2017-12-16T02:16:45.047Z,9.60
2017-12-16T02:19:13.991Z,9.60
2017-12-16T02:21:42.883Z,9.60
2017-12-16T02:24:11.817Z,9.60
2017-12-16T02:26:40.769Z,9.50
2017-12-16T02:29:09.662Z,9.50
2017-12-16T02:31:38.553Z,9.50
2017-12-16T02:34:07.342Z,9.40
2017-12-16T02:36:36.234Z,9.40
2017-12-16T02:39:05.123Z,9.50
2017-12-16T02:41:33.910Z,9.40
2017-12-16T02:44:02.801Z,9.40
2017-12-16T02:46:31.691Z,9.40
2017-12-16T02:49:00.583Z,9.40
2017-12-16T02:51:29.472Z,9.30
2017-12-16T02:53:58.366Z,9.20
2017-12-16T02:56:27.255Z,9.20
2017-12-16T02:58:56.150Z,9.20
2017-12-16T03:01:25.039Z,9.30
2017-12-16T03:03:54.030Z,9.20
2017-12-16T03:06:23.707Z,9.20
2017-12-16T03:08:52.728Z,9.20
2017-12-16T03:11:21.523Z,9.20
2017-12-16T03:13:51.240Z,9.10
2017-12-16T03:16:20.946Z,9.20
2017-12-16T03:18:49.835Z,9.10
2017-12-16T03:21:18.729Z,9.20
2017-12-16T03:23:47.616Z,9.20
2017-12-16T03:26:16.509Z,9.10
2017-12-16T03:28:45.397Z,9.10
2017-12-16T03:31:14.396Z,9.10
2017-12-16T03:33:43.224Z,9.10
2017-12-16T03:36:12.174Z,9.10
2017-12-16T03:38:41.167Z,9.00
2017-12-16T03:41:09.995Z,9.00
2017-12-16T03:43:39.052Z,8.90
2017-12-16T03:46:08.803Z,8.90
2017-12-16T03:48:37.902Z,8.90
2017-12-16T03:51:07.875Z,8.90
2017-12-16T03:53:36.774Z,8.80
2017-12-16T03:56:06.481Z,8.80
2017-12-16T03:58:35.369Z,8.70
2017-12-16T04:01:04.258Z,8.80
2017-12-16T04:03:33.343Z,8.80
2017-12-16T04:06:02.247Z,8.80
2017-12-16T04:08:31.136Z,8.80
2017-12-16T04:10:59.930Z,8.80
2017-12-16T04:13:29.081Z,8.80
2017-12-16T04:15:58.012Z,8.90
2017-12-16T04:18:28.430Z,8.80
2017-12-16T04:20:57.977Z,8.80
2017-12-16T04:23:26.836Z,8.80
2017-12-16T04:25:55.827Z,8.80
2017-12-16T04:28:25.949Z,8.70
2017-12-16T04:30:55.662Z,8.80
2017-12-16T04:33:24.833Z,8.80
2017-12-16T04:35:53.964Z,8.80
2017-12-16T04:38:22.742Z,8.70
2017-12-16T04:40:51.797Z,8.80
2017-12-16T04:43:20.941Z,8.70
2017-12-16T04:45:50.032Z,8.70
2017-12-16T04:48:18.835Z,8.70
2017-12-16T04:50:48.572Z,8.80
2017-12-16T04:53:18.242Z,8.90
2017-12-16T04:55:47.336Z,8.90
2017-12-16T04:58:16.554Z,8.90
2017-12-16T05:00:45.696Z,8.80
2017-12-16T05:03:14.833Z,8.80
2017-12-16T05:05:44.139Z,8.80
2017-12-16T05:08:13.224Z,8.80
2017-12-16T05:10:42.332Z,8.80
2017-12-16T05:13:11.318Z,8.70
2017-12-16T05:15:40.597Z,8.80
2017-12-16T05:18:10.231Z,8.70
2017-12-16T05:20:39.217Z,8.70
2017-12-16T05:23:08.322Z,8.80
2017-12-16T05:25:38.241Z,8.80
2017-12-16T05:28:07.433Z,8.80
2017-12-16T05:30:36.520Z,8.80
2017-12-16T05:33:05.411Z,8.80
2017-12-16T05:35:34.308Z,8.80
2017-12-16T05:38:04.366Z,8.80
2017-12-16T05:40:34.036Z,8.80
2017-12-16T05:43:03.737Z,8.70
2017-12-16T05:45:32.636Z,8.70
2017-12-16T05:48:01.528Z,8.70
2017-12-16T05:50:30.616Z,8.70
2017-12-16T05:52:59.518Z,8.70
2017-12-16T05:55:28.614Z,8.70
2017-12-16T05:57:57.747Z,8.70
2017-12-16T06:00:27.615Z,8.70
2017-12-16T06:02:58.098Z,8.60
2017-12-16T06:05:27.252Z,8.60
2017-12-16T06:07:56.036Z,8.60
2017-12-16T06:10:25.944Z,8.60
2017-12-16T06:12:54.843Z,8.60
2017-12-16T06:15:23.639Z,8.60
2017-12-16T06:17:52.723Z,8.60
2017-12-16T06:20:21.838Z,8.60
2017-12-16T06:22:51.102Z,8.50
2017-12-16T06:25:20.527Z,8.50
2017-12-16T06:27:50.232Z,8.50
2017-12-16T06:30:20.144Z,8.40
2017-12-16T06:32:49.313Z,8.40
2017-12-16T06:35:18.338Z,8.50
2017-12-16T06:37:47.433Z,8.50
2017-12-16T06:40:16.368Z,8.50
2017-12-16T06:42:45.330Z,8.50
2017-12-16T06:45:14.259Z,8.50
2017-12-16T06:47:44.328Z,8.40
2017-12-16T06:50:13.123Z,8.40
2017-12-16T06:52:42.007Z,8.40
2017-12-16T06:55:10.897Z,8.30
2017-12-16T06:57:39.786Z,8.30
2017-12-16T07:00:08.882Z,8.30
2017-12-16T07:02:37.878Z,8.40
2017-12-16T07:05:06.975Z,8.30
2017-12-16T07:07:36.169Z,8.20
2017-12-16T07:10:05.216Z,8.20
2017-12-16T07:12:34.248Z,8.30
2017-12-16T07:15:03.322Z,8.30
2017-12-16T07:17:32.190Z,8.30
2017-12-16T07:20:01.137Z,8.40
2017-12-16T07:22:30.028Z,8.40
2017-12-16T07:24:59.025Z,8.50
2017-12-16T07:27:28.014Z,8.50
2017-12-16T07:29:57.622Z,8.50
2017-12-16T07:32:26.616Z,8.40
2017-12-16T07:34:56.223Z,8.40
2017-12-16T07:37:25.115Z,8.40
2017-12-16T07:39:53.802Z,8.30
2017-12-16T07:42:22.691Z,8.30
2017-12-16T07:44:51.526Z,8.30
2017-12-16T07:47:20.475Z,8.30
2017-12-16T07:49:49.264Z,8.40
2017-12-16T07:52:18.088Z,8.40
2017-12-16T07:54:46.942Z,8.30
2017-12-16T07:57:15.732Z,8.30
2017-12-16T07:59:44.723Z,8.30
2017-12-16T08:02:13.551Z,8.30
2017-12-16T08:04:42.450Z,8.30
2017-12-16T08:07:11.191Z,8.40
2017-12-16T08:09:40.192Z,8.40
2017-12-16T08:12:08.877Z,8.30
2017-12-16T08:14:37.562Z,8.40
2017-12-16T08:17:06.655Z,8.50
2017-12-16T08:19:35.343Z,8.50
2017-12-16T08:22:04.129Z,8.60
2017-12-16T08:24:33.021Z,8.70
2017-12-16T08:27:01.814Z,8.70
2017-12-16T08:29:30.454Z,8.80
2017-12-16T08:31:59.284Z,8.90
2017-12-16T08:34:27.975Z,8.90
2017-12-16T08:36:56.656Z,9.00
2017-12-16T08:39:25.445Z,9.10
2017-12-16T08:41:54.234Z,9.30
2017-12-16T08:44:23.063Z,9.30
2017-12-16T08:46:51.811Z,9.40
2017-12-16T08:49:20.625Z,9.50
2017-12-16T08:51:49.286Z,9.60
2017-12-16T08:54:18.130Z,9.70
2017-12-16T08:56:47.583Z,9.60
2017-12-16T08:59:16.470Z,9.60
2017-12-16T09:01:45.620Z,9.70
2017-12-16T09:04:14.355Z,9.80
2017-12-16T09:06:43.225Z,9.80
2017-12-16T09:09:12.212Z,9.70
2017-12-16T09:11:40.952Z,9.80
2017-12-16T09:14:09.721Z,9.90
2017-12-16T09:16:38.549Z,9.90
2017-12-16T09:19:07.291Z,9.90
2017-12-16T09:21:36.589Z,10.00
2017-12-16T09:24:05.490Z,9.90
2017-12-16T09:26:34.316Z,9.80
2017-12-16T09:29:03.776Z,10.00
2017-12-16T09:31:32.681Z,9.90
2017-12-16T09:34:01.503Z,10.00
2017-12-16T09:36:30.616Z,10.10
2017-12-16T09:38:59.444Z,10.10
2017-12-16T09:41:28.130Z,10.10
2017-12-16T09:43:56.816Z,10.20
2017-12-16T09:46:26.525Z,10.20
2017-12-16T09:48:55.216Z,10.20
2017-12-16T09:51:23.908Z,10.30
2017-12-16T09:53:53.607Z,9.90
2017-12-16T09:56:22.292Z,9.80
2017-12-16T09:58:51.085Z,9.90
2017-12-16T10:01:19.972Z,10.10
2017-12-16T10:03:48.762Z,10.10
2017-12-16T10:06:17.798Z,10.10
2017-12-16T10:08:47.465Z,10.00
2017-12-16T10:11:16.361Z,10.00
2017-12-16T10:13:45.042Z,10.00
2017-12-16T11:38:28.635Z,10.10
2017-12-16T11:40:57.532Z,11.90
2017-12-16T11:43:26.316Z,11.90
2017-12-16T11:45:55.213Z,11.80
2017-12-16T11:48:24.004Z,11.90
2017-12-16T11:50:52.778Z,11.90
2017-12-16T11:53:21.754Z,11.90
2017-12-16T11:55:50.674Z,12.00
2017-12-16T11:58:19.473Z,12.10
2017-12-16T12:00:48.451Z,12.10
2017-12-16T12:03:17.171Z,12.10
2017-12-16T12:05:46.033Z,12.20
2017-12-16T12:08:14.926Z,12.20
2017-12-16T12:10:43.811Z,12.30
2017-12-16T12:13:12.648Z,12.30
2017-12-16T12:15:41.389Z,12.40
2017-12-16T12:18:10.283Z,12.40
2017-12-16T12:20:39.177Z,12.40
2017-12-16T12:23:14.820Z,12.50
2017-12-16T12:25:43.611Z,12.60
2017-12-16T12:28:12.299Z,12.80
2017-12-16T12:30:40.983Z,12.80
2017-12-16T12:33:09.671Z,12.90
2017-12-16T12:35:38.546Z,12.90
2017-12-16T12:38:07.464Z,13.00
2017-12-16T12:40:37.367Z,13.10
2017-12-16T12:43:06.056Z,13.10
2017-12-16T12:45:34.939Z,13.20
2017-12-16T12:48:03.858Z,13.20
2017-12-16T12:50:33.233Z,13.30
2017-12-16T12:53:02.125Z,13.20
2017-12-16T12:55:30.809Z,13.30
2017-12-16T12:57:59.505Z,13.30
2017-12-16T13:00:28.354Z,13.30
2017-12-16T13:02:57.080Z,13.30
2017-12-16T13:05:25.973Z,13.30
2017-12-16T13:07:54.854Z,13.30
2017-12-16T13:10:23.548Z,13.30
2017-12-16T13:12:52.642Z,13.30
2017-12-16T13:15:21.527Z,13.30
2017-12-16T13:17:50.218Z,13.30
2017-12-16T13:20:18.903Z,13.30
2017-12-16T13:22:47.510Z,13.30
2017-12-16T13:25:16.479Z,13.40
2017-12-16T13:27:46.089Z,13.50
2017-12-16T13:30:14.944Z,13.40
2017-12-16T13:32:43.664Z,13.50
2017-12-16T13:35:12.557Z,13.50
2017-12-16T13:37:41.554Z,13.50
2017-12-16T13:40:10.644Z,13.60
2017-12-16T13:42:39.536Z,13.60
2017-12-16T13:45:08.431Z,13.60
2017-12-16T13:47:37.114Z,13.60
2017-12-16T13:50:06.004Z,13.60
2017-12-16T13:52:34.906Z,13.60
2017-12-16T13:55:03.785Z,13.60
2017-12-16T13:57:32.478Z,13.60
2017-12-16T14:00:01.367Z,13.60
2017-12-16T14:02:31.080Z,13.70
2017-12-16T14:04:59.996Z,13.60
2017-12-16T14:07:28.757Z,13.60
2017-12-16T14:09:57.407Z,13.70
2017-12-16T14:12:26.126Z,13.60
2017-12-16T14:14:54.813Z,13.50
2017-12-16T14:17:23.659Z,13.50
2017-12-16T14:19:52.595Z,13.40
2017-12-16T14:22:21.441Z,13.50
2017-12-16T14:24:50.268Z,13.50
2017-12-16T14:27:19.076Z,13.50
2017-12-16T14:29:47.748Z,13.60
2017-12-16T14:32:16.436Z,13.60
2017-12-16T14:34:45.123Z,13.60
2017-12-16T14:37:14.215Z,13.70
2017-12-16T14:39:43.111Z,13.70
2017-12-16T14:42:11.954Z,13.80
2017-12-16T14:44:40.824Z,13.80
2017-12-16T14:47:09.579Z,13.80
2017-12-16T14:49:38.467Z,13.80
2017-12-16T14:52:07.165Z,13.90
2017-12-16T14:54:36.149Z,13.90
2017-12-16T14:57:04.778Z,13.90
2017-12-16T14:59:33.517Z,13.90
2017-12-16T15:02:02.203Z,14.00
2017-12-16T15:04:31.104Z,14.00
2017-12-16T15:06:59.988Z,14.00
2017-12-16T15:09:29.404Z,14.30
2017-12-16T15:11:58.188Z,14.30
2017-12-16T15:14:27.074Z,14.50
2017-12-16T15:16:55.754Z,14.50
2017-12-16T15:19:24.440Z,14.50
2017-12-16T15:21:53.131Z,15.40
2017-12-16T15:24:21.819Z,15.60
2017-12-16T15:26:50.703Z,14.90
2017-12-16T15:29:19.595Z,14.40
2017-12-16T15:31:48.689Z,14.20
2017-12-16T15:34:17.601Z,14.10
2017-12-16T15:36:46.470Z,14.10
2017-12-16T15:39:15.365Z,14.00
2017-12-16T15:41:44.047Z,14.00
2017-12-16T15:44:12.939Z,13.80
2017-12-16T15:46:41.632Z,13.70
2017-12-16T15:49:10.342Z,13.60
2017-12-16T15:51:39.153Z,13.60
2017-12-16T15:54:08.037Z,13.50
2017-12-16T15:56:36.779Z,13.50
2017-12-16T15:59:05.674Z,13.40
2017-12-16T16:01:34.362Z,13.40
2017-12-16T16:04:03.043Z,13.30
2017-12-16T16:06:31.934Z,13.30
2017-12-16T16:09:00.824Z,13.20
2017-12-16T16:11:29.716Z,13.10
2017-12-16T16:13:58.606Z,13.10
2017-12-16T16:16:27.501Z,13.10
2017-12-16T16:18:56.130Z,13.00
2017-12-16T16:21:24.870Z,13.00
2017-12-16T16:23:53.515Z,12.90
2017-12-16T16:26:22.244Z,12.90
2017-12-16T16:28:51.155Z,12.90
2017-12-16T16:31:20.639Z,12.80
2017-12-16T16:33:49.325Z,12.80
2017-12-16T16:36:18.011Z,12.70
2017-12-16T16:38:46.700Z,12.70
2017-12-16T16:41:15.388Z,12.70
2017-12-16T16:43:44.278Z,12.60
2017-12-16T16:46:13.173Z,12.50
2017-12-16T16:48:42.063Z,12.50
2017-12-16T16:51:10.947Z,12.50
2017-12-16T16:53:39.841Z,12.40
2017-12-16T16:56:08.525Z,12.40
2017-12-16T16:58:37.437Z,12.40
2017-12-16T17:01:06.309Z,12.30
2017-12-16T17:03:35.102Z,12.40
2017-12-16T17:06:03.989Z,12.40
2017-12-16T17:08:32.673Z,12.30
2017-12-16T17:11:01.360Z,12.30
2017-12-16T17:13:30.255Z,12.30
2017-12-16T17:15:58.873Z,12.20
2017-12-16T17:18:28.855Z,12.30
2017-12-16T17:20:57.750Z,12.50
2017-12-16T17:23:26.637Z,12.50
2017-12-16T17:25:56.199Z,12.30
2017-12-16T17:28:25.847Z,12.40
2017-12-16T17:30:55.355Z,12.40
2017-12-16T17:33:25.080Z,12.30
2017-12-16T17:35:53.955Z,12.40
2017-12-16T17:38:22.851Z,12.30
2017-12-16T17:40:51.634Z,12.30
2017-12-16T17:43:20.456Z,12.30
2017-12-16T17:45:49.266Z,12.30
2017-12-16T17:48:18.306Z,12.20
2017-12-16T17:50:47.656Z,12.20
2017-12-16T17:53:17.638Z,12.10
2017-12-16T17:55:50.361Z,12.20
2017-12-16T17:58:19.364Z,12.20
2017-12-16T18:00:48.229Z,12.10
2017-12-16T18:03:18.263Z,14.00
2017-12-16T18:05:48.085Z,12.20
2017-12-16T18:08:17.194Z,12.20
2017-12-16T18:10:46.116Z,12.10
2017-12-16T18:13:15.363Z,12.10
2017-12-16T18:15:44.203Z,12.10
2017-12-16T18:18:13.402Z,12.10
2017-12-16T18:20:42.435Z,12.10
2017-12-16T18:23:12.049Z,12.10
2017-12-16T18:25:40.991Z,12.10
2017-12-16T18:28:10.130Z,12.10
2017-12-16T18:30:39.087Z,12.10
2017-12-16T18:33:07.983Z,12.10
2017-12-16T18:35:37.086Z,12.20
2017-12-16T18:38:07.177Z,12.10
2017-12-16T18:40:36.080Z,12.10
2017-12-16T18:43:04.979Z,12.10
2017-12-16T18:45:35.329Z,12.00
2017-12-16T18:48:04.399Z,12.00
2017-12-16T18:50:34.414Z,11.90
2017-12-16T18:53:03.769Z,11.90
2017-12-16T18:55:32.826Z,11.80
2017-12-16T18:58:01.624Z,11.70
2017-12-16T19:00:31.950Z,11.70
2017-12-16T19:03:01.838Z,11.60
2017-12-16T19:05:31.161Z,11.60
2017-12-16T19:08:00.233Z,11.70
2017-12-16T19:10:28.923Z,11.70
2017-12-16T19:12:57.579Z,11.60
2017-12-16T19:15:26.493Z,11.60
2017-12-16T19:17:55.384Z,11.50
2017-12-16T19:20:24.887Z,11.50
2017-12-16T19:22:53.730Z,11.50
2017-12-16T19:25:22.464Z,11.40
2017-12-16T19:27:51.462Z,11.40
2017-12-16T19:30:20.860Z,11.30
2017-12-16T19:32:49.753Z,11.30
2017-12-16T19:35:18.438Z,11.30
2017-12-16T19:37:47.226Z,11.30
2017-12-16T19:40:15.916Z,11.20
2017-12-16T19:42:44.805Z,11.20
2017-12-16T19:45:13.597Z,11.10
2017-12-16T19:47:42.282Z,11.10
2017-12-16T19:50:11.177Z,11.10
2017-12-16T19:52:40.060Z,11.20
2017-12-16T19:55:08.954Z,11.20
2017-12-16T19:57:37.843Z,11.20
2017-12-16T20:00:06.734Z,11.10
2017-12-16T20:02:36.344Z,10.80
2017-12-16T20:05:05.134Z,10.80
2017-12-16T20:07:39.976Z,10.70
2017-12-16T20:10:09.064Z,10.60
2017-12-16T20:12:37.948Z,10.60
2017-12-16T20:15:06.840Z,10.50
2017-12-16T20:17:35.731Z,10.50
2017-12-16T20:20:04.622Z,10.40
2017-12-16T20:22:33.453Z,10.30
2017-12-16T20:25:02.198Z,10.30
2017-12-16T20:27:31.300Z,10.30
2017-12-16T20:30:00.186Z,10.30
2017-12-16T20:32:28.976Z,10.20
2017-12-16T20:34:58.583Z,10.10
2017-12-16T20:37:27.370Z,10.10
2017-12-16T20:39:56.264Z,10.00
2017-12-16T20:42:25.154Z,10.00
2017-12-16T20:44:53.941Z,10.00
2017-12-16T20:47:22.831Z,10.00
2017-12-16T20:49:51.471Z,9.90
2017-12-16T20:52:20.205Z,9.90
2017-12-16T20:54:49.139Z,9.90
2017-12-16T20:57:18.097Z,10.00
2017-12-16T20:59:47.387Z,9.90
2017-12-16T21:02:16.073Z,9.90
2017-12-16T21:04:44.914Z,9.90
2017-12-16T21:07:13.654Z,9.90
2017-12-16T21:09:42.336Z,9.90
2017-12-16T21:12:11.023Z,9.90
2017-12-16T21:14:39.711Z,9.80
2017-12-16T21:17:08.600Z,9.80
2017-12-16T21:19:37.287Z,9.80
2017-12-16T21:22:06.178Z,9.80
2017-12-16T21:24:35.082Z,9.80
2017-12-16T21:27:03.739Z,9.70
2017-12-16T21:29:32.651Z,9.60
2017-12-16T21:32:01.975Z,9.50
2017-12-16T21:34:31.046Z,9.50
2017-12-16T21:37:00.062Z,9.50
2017-12-16T21:39:29.034Z,9.50
2017-12-16T21:41:57.921Z,9.50
2017-12-16T21:44:26.925Z,9.50
2017-12-16T21:46:56.116Z,9.60
2017-12-16T21:49:24.977Z,9.60
2017-12-16T21:51:53.954Z,9.60
2017-12-16T21:54:22.793Z,9.60
2017-12-16T21:56:52.089Z,9.70
2017-12-16T21:59:20.719Z,9.70
2017-12-16T22:01:49.614Z,9.90
2017-12-16T22:04:18.306Z,9.80
2017-12-16T22:06:47.190Z,9.90
2017-12-16T22:09:16.046Z,9.90
2017-12-16T22:11:44.758Z,9.70
2017-12-16T22:14:13.516Z,9.60
2017-12-16T22:16:42.194Z,9.60
2017-12-16T22:19:10.876Z,9.60
2017-12-16T22:21:39.780Z,9.70
2017-12-16T22:24:08.472Z,9.70
2017-12-16T22:26:37.348Z,9.70
2017-12-16T22:29:06.053Z,9.70
2017-12-16T22:31:34.716Z,9.70
2017-12-16T22:34:03.410Z,9.70
2017-12-16T22:36:32.485Z,9.70
2017-12-16T22:39:01.189Z,9.80
2017-12-16T22:41:30.507Z,9.70
2017-12-16T22:43:59.589Z,9.80
2017-12-16T22:46:28.476Z,9.80
2017-12-16T22:48:57.118Z,9.80
2017-12-16T22:51:26.144Z,9.80
2017-12-16T22:53:54.942Z,9.80
2017-12-16T22:56:23.831Z,9.70
2017-12-16T22:58:53.235Z,9.60
2017-12-16T23:01:22.126Z,9.60
2017-12-16T23:03:51.017Z,9.50
2017-12-16T23:06:20.114Z,9.50
2017-12-16T23:08:49.006Z,9.50
2017-12-16T23:11:18.719Z,9.40
2017-12-16T23:13:47.604Z,9.40
2017-12-16T23:16:16.496Z,9.40
2017-12-16T23:18:45.387Z,9.40
2017-12-16T23:21:14.280Z,9.40
2017-12-16T23:23:43.169Z,9.40
2017-12-16T23:26:12.060Z,9.40
2017-12-16T23:28:41.774Z,9.50
2017-12-16T23:31:11.480Z,9.50
2017-12-16T23:33:40.372Z,9.50
2017-12-16T23:36:09.263Z,9.60
2017-12-16T23:38:54.279Z,9.50
2017-12-16T23:41:23.224Z,9.50
2017-12-16T23:43:52.048Z,9.50
2017-12-16T23:46:21.517Z,9.50
2017-12-16T23:48:50.411Z,9.50
2017-12-16T23:51:19.300Z,9.50
2017-12-16T23:53:47.975Z,9.50
2017-12-16T23:56:16.838Z,9.50
2017-12-16T23:58:45.787Z,9.50
